sensor_id;sensor_type;location;lat;lon;timestamp;temperature;humidity
5128;DHT22;2582;48.770;9.190;2023-04-15T00:01:24;8.10;99.90
5128;DHT22;2582;48.770;9.190;2023-04-15T00:03:51;8.00;99.90
5128;DHT22;2582;48.770;9.190;2023-04-15T00:06:18;8.00;99.90
5128;DHT22;2582;48.770;9.190;2023-04-15T00:08:44;7.90;99.90
5128;DHT22;2582;48.770;9.190;2023-04-15T00:11:10;7.90;99.90
5128;DHT22;2582;48.770;9.190;2023-04-15T00:13:37;8.00;99.90
5128;DHT22;2582;48.770;9.190;2023-04-15T00:16:03;8.00;99.90
5128;DHT22;2582;48.770;9.190;2023-04-15T00:18:28;8.10;99.90
5128;DHT22;2582;48.770;9.190;2023-04-15T00:20:54;8.10;99.90
5128;DHT22;2582;48.770;9.190;2023-04-15T00:23:20;8.00;99.90
5128;DHT22;2582;48.770;9.190;2023-04-15T00:25:46;8.10;99.90
5128;DHT22;2582;48.770;9.190;2023-04-15T00:28:11;8.00;99.90
5128;DHT22;2582;48.770;9.190;2023-04-15T00:30:37;8.00;99.90
5128;DHT22;2582;48.770;9.190;2023-04-15T00:33:03;8.00;99.90
5128;DHT22;2582;48.770;9.190;2023-04-15T00:35:29;7.80;99.90
5128;DHT22;2582;48.770;9.190;2023-04-15T00:37:57;7.70;99.90
5128;DHT22;2582;48.770;9.190;2023-04-15T00:40:23;7.60;99.90
5128;DHT22;2582;48.770;9.190;2023-04-15T00:42:50;7.70;99.90
5128;DHT22;2582;48.770;9.190;2023-04-15T00:45:16;7.80;99.90
5128;DHT22;2582;48.770;9.190;2023-04-15T00:47:42;7.80;99.90
5128;DHT22;2582;48.770;9.190;2023-04-15T00:50:08;7.70;99.90
5128;DHT22;2582;48.770;9.190;2023-04-15T00:52:34;7.60;99.90
5128;DHT22;2582;48.770;9.190;2023-04-15T00:55:00;7.70;99.90
5128;DHT22;2582;48.770;9.190;2023-04-15T00:57:27;7.60;99.90
5128;DHT22;2582;48.770;9.190;2023-04-15T00:59:54;7.50;99.90
5128;DHT22;2582;48.770;9.190;2023-04-15T01:02:21;7.50;99.90
5128;DHT22;2582;48.770;9.190;2023-04-15T01:04:47;7.50;99.90
5128;DHT22;2582;48.770;9.190;2023-04-15T01:07:13;7.50;99.90
5128;DHT22;2582;48.770;9.190;2023-04-15T01:09:39;7.40;99.90
5128;DHT22;2582;48.770;9.190;2023-04-15T01:12:06;7.40;99.90
5128;DHT22;2582;48.770;9.190;2023-04-15T01:14:33;7.20;99.90
5128;DHT22;2582;48.770;9.190;2023-04-15T01:16:59;7.30;99.90
5128;DHT22;2582;48.770;9.190;2023-04-15T01:19:25;7.30;99.90
5128;DHT22;2582;48.770;9.190;2023-04-15T01:21:51;7.30;99.90
5128;DHT22;2582;48.770;9.190;2023-04-15T01:24:18;7.30;99.90
5128;DHT22;2582;48.770;9.190;2023-04-15T01:26:44;7.30;99.90
5128;DHT22;2582;48.770;9.190;2023-04-15T01:29:11;7.20;99.90
5128;DHT22;2582;48.770;9.190;2023-04-15T01:31:36;7.30;99.90
5128;DHT22;2582;48.770;9.190;2023-04-15T01:34:02;7.20;99.90
5128;DHT22;2582;48.770;9.190;2023-04-15T01:36:28;7.30;99.90
5128;DHT22;2582;48.770;9.190;2023-04-15T01:38:55;7.30;99.90
5128;DHT22;2582;48.770;9.190;2023-04-15T01:41:27;7.30;99.90
5128;DHT22;2582;48.770;9.190;2023-04-15T01:43:54;7.20;99.90
5128;DHT22;2582;48.770;9.190;2023-04-15T01:46:19;7.20;99.90
5128;DHT22;2582;48.770;9.190;2023-04-15T01:48:46;7.20;99.90
5128;DHT22;2582;48.770;9.190;2023-04-15T01:51:11;7.20;99.90
5128;DHT22;2582;48.770;9.190;2023-04-15T01:53:37;7.10;99.90
5128;DHT22;2582;48.770;9.190;2023-04-15T01:56:03;7.20;99.90
5128;DHT22;2582;48.770;9.190;2023-04-15T01:58:28;7.20;99.90
5128;DHT22;2582;48.770;9.190;2023-04-15T02:00:54;7.20;99.90
5128;DHT22;2582;48.770;9.190;2023-04-15T02:03:20;7.20;99.90
5128;DHT22;2582;48.770;9.190;2023-04-15T02:05:46;7.20;99.90
5128;DHT22;2582;48.770;9.190;2023-04-15T02:08:11;7.10;99.90
5128;DHT22;2582;48.770;9.190;2023-04-15T02:10:37;7.00;99.90
5128;DHT22;2582;48.770;9.190;2023-04-15T02:13:03;7.10;99.90
5128;DHT22;2582;48.770;9.190;2023-04-15T02:15:29;7.00;99.90
5128;DHT22;2582;48.770;9.190;2023-04-15T02:17:54;7.00;99.90
5128;DHT22;2582;48.770;9.190;2023-04-15T02:20:20;7.00;99.90
5128;DHT22;2582;48.770;9.190;2023-04-15T02:22:47;6.90;99.90
5128;DHT22;2582;48.770;9.190;2023-04-15T02:25:13;6.90;99.90
5128;DHT22;2582;48.770;9.190;2023-04-15T02:27:39;6.90;99.90
5128;DHT22;2582;48.770;9.190;2023-04-15T02:30:05;6.80;99.90
5128;DHT22;2582;48.770;9.190;2023-04-15T02:32:32;6.70;99.90
5128;DHT22;2582;48.770;9.190;2023-04-15T02:35:04;6.70;99.90
5128;DHT22;2582;48.770;9.190;2023-04-15T02:37:31;6.80;99.90
5128;DHT22;2582;48.770;9.190;2023-04-15T02:39:59;6.70;99.90
5128;DHT22;2582;48.770;9.190;2023-04-15T02:42:25;6.70;99.90
5128;DHT22;2582;48.770;9.190;2023-04-15T02:44:53;6.60;99.90
5128;DHT22;2582;48.770;9.190;2023-04-15T02:47:19;6.50;99.90
5128;DHT22;2582;48.770;9.190;2023-04-15T02:49:45;6.40;99.90
5128;DHT22;2582;48.770;9.190;2023-04-15T02:52:11;6.50;99.90
5128;DHT22;2582;48.770;9.190;2023-04-15T02:54:36;6.60;99.90
5128;DHT22;2582;48.770;9.190;2023-04-15T02:57:02;6.50;99.90
5128;DHT22;2582;48.770;9.190;2023-04-15T02:59:30;6.50;99.90
5128;DHT22;2582;48.770;9.190;2023-04-15T03:01:56;6.60;99.90
5128;DHT22;2582;48.770;9.190;2023-04-15T03:04:25;6.60;99.90
5128;DHT22;2582;48.770;9.190;2023-04-15T03:06:51;6.60;99.90
5128;DHT22;2582;48.770;9.190;2023-04-15T03:09:16;6.60;99.90
5128;DHT22;2582;48.770;9.190;2023-04-15T03:11:42;6.50;99.90
5128;DHT22;2582;48.770;9.190;2023-04-15T03:14:07;6.50;99.90
5128;DHT22;2582;48.770;9.190;2023-04-15T03:16:33;6.40;99.90
5128;DHT22;2582;48.770;9.190;2023-04-15T03:18:59;6.50;99.90
5128;DHT22;2582;48.770;9.190;2023-04-15T03:21:24;6.40;99.90
5128;DHT22;2582;48.770;9.190;2023-04-15T03:23:51;6.40;99.90
5128;DHT22;2582;48.770;9.190;2023-04-15T03:26:43;6.50;99.90
5128;DHT22;2582;48.770;9.190;2023-04-15T03:29:09;6.40;99.90
5128;DHT22;2582;48.770;9.190;2023-04-15T03:31:35;6.40;99.90
5128;DHT22;2582;48.770;9.190;2023-04-15T03:34:00;6.40;99.90
5128;DHT22;2582;48.770;9.190;2023-04-15T03:36:28;6.30;99.90
5128;DHT22;2582;48.770;9.190;2023-04-15T03:38:55;6.30;99.90
5128;DHT22;2582;48.770;9.190;2023-04-15T03:41:22;6.40;99.90
5128;DHT22;2582;48.770;9.190;2023-04-15T03:43:47;6.30;99.90
5128;DHT22;2582;48.770;9.190;2023-04-15T03:46:13;6.40;99.90
5128;DHT22;2582;48.770;9.190;2023-04-15T03:48:39;6.50;99.90
5128;DHT22;2582;48.770;9.190;2023-04-15T03:51:04;6.50;99.90
5128;DHT22;2582;48.770;9.190;2023-04-15T03:53:30;6.60;99.90
5128;DHT22;2582;48.770;9.190;2023-04-15T03:55:55;6.60;99.90
5128;DHT22;2582;48.770;9.190;2023-04-15T03:58:21;6.50;99.90
5128;DHT22;2582;48.770;9.190;2023-04-15T04:00:47;6.40;99.90
5128;DHT22;2582;48.770;9.190;2023-04-15T04:03:12;6.40;99.90
5128;DHT22;2582;48.770;9.190;2023-04-15T04:05:38;6.30;99.90
5128;DHT22;2582;48.770;9.190;2023-04-15T04:08:06;6.20;99.90
5128;DHT22;2582;48.770;9.190;2023-04-15T04:10:31;6.20;99.90
5128;DHT22;2582;48.770;9.190;2023-04-15T04:12:57;6.10;99.90
5128;DHT22;2582;48.770;9.190;2023-04-15T04:15:23;6.10;99.90
5128;DHT22;2582;48.770;9.190;2023-04-15T04:17:48;6.10;99.90
5128;DHT22;2582;48.770;9.190;2023-04-15T04:20:14;6.20;99.90
5128;DHT22;2582;48.770;9.190;2023-04-15T04:22:40;6.20;99.90
5128;DHT22;2582;48.770;9.190;2023-04-15T04:25:06;6.20;99.90
5128;DHT22;2582;48.770;9.190;2023-04-15T04:27:33;6.20;99.90
5128;DHT22;2582;48.770;9.190;2023-04-15T04:29:59;6.20;99.90
5128;DHT22;2582;48.770;9.190;2023-04-15T04:32:25;6.10;99.90
5128;DHT22;2582;48.770;9.190;2023-04-15T04:34:50;6.10;99.90
5128;DHT22;2582;48.770;9.190;2023-04-15T04:37:16;6.10;99.90
5128;DHT22;2582;48.770;9.190;2023-04-15T04:39:41;6.00;99.90
5128;DHT22;2582;48.770;9.190;2023-04-15T04:42:07;6.00;99.90
5128;DHT22;2582;48.770;9.190;2023-04-15T04:44:33;6.10;99.90
5128;DHT22;2582;48.770;9.190;2023-04-15T04:46:58;6.10;99.90
5128;DHT22;2582;48.770;9.190;2023-04-15T04:49:24;6.10;99.90
5128;DHT22;2582;48.770;9.190;2023-04-15T04:51:50;6.00;99.90
5128;DHT22;2582;48.770;9.190;2023-04-15T04:54:15;6.10;99.90
5128;DHT22;2582;48.770;9.190;2023-04-15T04:56:42;6.00;99.90
5128;DHT22;2582;48.770;9.190;2023-04-15T04:59:07;5.90;99.90
5128;DHT22;2582;48.770;9.190;2023-04-15T05:01:33;5.90;99.90
5128;DHT22;2582;48.770;9.190;2023-04-15T05:03:59;5.90;99.90
5128;DHT22;2582;48.770;9.190;2023-04-15T05:06:25;5.90;99.90
5128;DHT22;2582;48.770;9.190;2023-04-15T05:08:50;5.90;99.90
5128;DHT22;2582;48.770;9.190;2023-04-15T05:11:16;5.90;99.90
5128;DHT22;2582;48.770;9.190;2023-04-15T05:13:42;5.80;99.90
5128;DHT22;2582;48.770;9.190;2023-04-15T05:16:07;5.90;99.90
5128;DHT22;2582;48.770;9.190;2023-04-15T05:18:33;6.00;99.90
5128;DHT22;2582;48.770;9.190;2023-04-15T05:21:00;6.00;99.90
5128;DHT22;2582;48.770;9.190;2023-04-15T05:23:26;6.00;99.90
5128;DHT22;2582;48.770;9.190;2023-04-15T05:25:52;6.10;99.90
5128;DHT22;2582;48.770;9.190;2023-04-15T05:28:18;6.10;99.90
5128;DHT22;2582;48.770;9.190;2023-04-15T05:30:43;6.10;99.90
5128;DHT22;2582;48.770;9.190;2023-04-15T05:33:09;6.10;99.90
5128;DHT22;2582;48.770;9.190;2023-04-15T05:35:35;6.10;99.90
5128;DHT22;2582;48.770;9.190;2023-04-15T05:38:01;6.20;99.90
5128;DHT22;2582;48.770;9.190;2023-04-15T05:40:26;6.30;99.90
5128;DHT22;2582;48.770;9.190;2023-04-15T05:42:52;6.30;99.90
5128;DHT22;2582;48.770;9.190;2023-04-15T05:45:18;6.40;99.90
5128;DHT22;2582;48.770;9.190;2023-04-15T05:47:43;6.40;99.90
5128;DHT22;2582;48.770;9.190;2023-04-15T05:50:09;6.40;99.90
5128;DHT22;2582;48.770;9.190;2023-04-15T05:52:35;6.40;99.90
5128;DHT22;2582;48.770;9.190;2023-04-15T05:55:01;6.50;99.90
5128;DHT22;2582;48.770;9.190;2023-04-15T05:57:26;6.50;99.90
5128;DHT22;2582;48.770;9.190;2023-04-15T05:59:52;6.70;99.90
5128;DHT22;2582;48.770;9.190;2023-04-15T06:02:18;7.00;99.90
5128;DHT22;2582;48.770;9.190;2023-04-15T06:04:43;7.20;99.90
5128;DHT22;2582;48.770;9.190;2023-04-15T06:07:09;7.40;99.90
5128;DHT22;2582;48.770;9.190;2023-04-15T06:09:35;7.50;99.90
5128;DHT22;2582;48.770;9.190;2023-04-15T06:12:01;7.70;99.90
5128;DHT22;2582;48.770;9.190;2023-04-15T06:14:27;7.90;99.90
5128;DHT22;2582;48.770;9.190;2023-04-15T06:16:52;8.10;99.90
5128;DHT22;2582;48.770;9.190;2023-04-15T06:19:18;8.30;99.90
5128;DHT22;2582;48.770;9.190;2023-04-15T06:21:44;8.50;99.90
5128;DHT22;2582;48.770;9.190;2023-04-15T06:24:11;8.60;99.90
5128;DHT22;2582;48.770;9.190;2023-04-15T06:26:36;8.40;99.90
5128;DHT22;2582;48.770;9.190;2023-04-15T06:29:02;8.50;99.90
5128;DHT22;2582;48.770;9.190;2023-04-15T06:31:27;8.10;99.90
5128;DHT22;2582;48.770;9.190;2023-04-15T06:33:53;7.90;99.90
5128;DHT22;2582;48.770;9.190;2023-04-15T06:36:19;7.90;99.90
5128;DHT22;2582;48.770;9.190;2023-04-15T06:38:44;8.20;99.90
5128;DHT22;2582;48.770;9.190;2023-04-15T06:41:11;8.60;99.90
5128;DHT22;2582;48.770;9.190;2023-04-15T06:43:36;8.90;99.90
5128;DHT22;2582;48.770;9.190;2023-04-15T06:46:02;9.30;99.90
5128;DHT22;2582;48.770;9.190;2023-04-15T06:48:28;9.50;99.90
5128;DHT22;2582;48.770;9.190;2023-04-15T06:50:53;9.30;99.90
5128;DHT22;2582;48.770;9.190;2023-04-15T06:53:19;9.30;99.90
5128;DHT22;2582;48.770;9.190;2023-04-15T06:55:46;9.60;99.90
5128;DHT22;2582;48.770;9.190;2023-04-15T06:58:11;9.30;99.90
5128;DHT22;2582;48.770;9.190;2023-04-15T07:00:37;9.00;99.90
5128;DHT22;2582;48.770;9.190;2023-04-15T07:03:03;9.20;99.90
5128;DHT22;2582;48.770;9.190;2023-04-15T07:05:29;9.40;99.90
5128;DHT22;2582;48.770;9.190;2023-04-15T07:07:57;9.30;99.90
5128;DHT22;2582;48.770;9.190;2023-04-15T07:10:22;9.20;99.90
5128;DHT22;2582;48.770;9.190;2023-04-15T07:12:48;9.40;99.90
5128;DHT22;2582;48.770;9.190;2023-04-15T07:15:15;9.60;99.90
5128;DHT22;2582;48.770;9.190;2023-04-15T07:17:41;9.50;99.90
5128;DHT22;2582;48.770;9.190;2023-04-15T07:20:10;9.70;99.90
5128;DHT22;2582;48.770;9.190;2023-04-15T07:22:36;9.90;99.90
5128;DHT22;2582;48.770;9.190;2023-04-15T07:25:01;9.80;99.90
5128;DHT22;2582;48.770;9.190;2023-04-15T07:27:27;9.70;99.90
5128;DHT22;2582;48.770;9.190;2023-04-15T07:29:52;9.70;99.90
5128;DHT22;2582;48.770;9.190;2023-04-15T07:32:18;9.90;99.90
5128;DHT22;2582;48.770;9.190;2023-04-15T07:34:44;10.00;99.90
5128;DHT22;2582;48.770;9.190;2023-04-15T07:37:10;10.40;99.90
5128;DHT22;2582;48.770;9.190;2023-04-15T07:39:35;10.40;99.90
5128;DHT22;2582;48.770;9.190;2023-04-15T07:42:02;10.10;99.90
5128;DHT22;2582;48.770;9.190;2023-04-15T07:44:28;10.10;99.90
5128;DHT22;2582;48.770;9.190;2023-04-15T07:46:57;10.20;99.90
5128;DHT22;2582;48.770;9.190;2023-04-15T07:49:23;10.40;99.90
5128;DHT22;2582;48.770;9.190;2023-04-15T07:51:48;10.60;99.90
5128;DHT22;2582;48.770;9.190;2023-04-15T07:54:15;10.50;99.90
5128;DHT22;2582;48.770;9.190;2023-04-15T07:56:40;10.30;99.90
5128;DHT22;2582;48.770;9.190;2023-04-15T07:59:06;10.40;99.90
5128;DHT22;2582;48.770;9.190;2023-04-15T08:01:32;10.60;99.90
5128;DHT22;2582;48.770;9.190;2023-04-15T08:03:58;10.50;99.90
5128;DHT22;2582;48.770;9.190;2023-04-15T08:06:24;10.90;99.90
5128;DHT22;2582;48.770;9.190;2023-04-15T08:08:50;11.40;99.90
5128;DHT22;2582;48.770;9.190;2023-04-15T08:11:16;11.60;99.90
5128;DHT22;2582;48.770;9.190;2023-04-15T08:13:41;11.90;99.90
5128;DHT22;2582;48.770;9.190;2023-04-15T08:16:20;12.20;99.90
5128;DHT22;2582;48.770;9.190;2023-04-15T08:18:47;12.40;99.90
5128;DHT22;2582;48.770;9.190;2023-04-15T08:21:14;12.50;99.90
5128;DHT22;2582;48.770;9.190;2023-04-15T08:23:40;12.80;99.90
5128;DHT22;2582;48.770;9.190;2023-04-15T08:26:05;13.00;99.90
5128;DHT22;2582;48.770;9.190;2023-04-15T08:28:32;13.00;99.90
5128;DHT22;2582;48.770;9.190;2023-04-15T08:30:57;12.70;99.90
5128;DHT22;2582;48.770;9.190;2023-04-15T08:33:23;12.70;99.90
5128;DHT22;2582;48.770;9.190;2023-04-15T08:35:49;13.00;99.90
5128;DHT22;2582;48.770;9.190;2023-04-15T08:38:14;13.30;99.90
5128;DHT22;2582;48.770;9.190;2023-04-15T08:40:42;13.20;99.90
5128;DHT22;2582;48.770;9.190;2023-04-15T08:43:14;13.10;99.90
5128;DHT22;2582;48.770;9.190;2023-04-15T08:45:40;13.10;99.90
5128;DHT22;2582;48.770;9.190;2023-04-15T08:48:06;13.40;99.80
5128;DHT22;2582;48.770;9.190;2023-04-15T08:50:34;13.90;99.50
5128;DHT22;2582;48.770;9.190;2023-04-15T08:53:00;14.10;99.10
5128;DHT22;2582;48.770;9.190;2023-04-15T08:55:31;14.00;98.60
5128;DHT22;2582;48.770;9.190;2023-04-15T08:58:01;13.50;99.50
5128;DHT22;2582;48.770;9.190;2023-04-15T09:00:27;13.90;99.20
5128;DHT22;2582;48.770;9.190;2023-04-15T09:02:54;13.90;99.10
5128;DHT22;2582;48.770;9.190;2023-04-15T09:05:21;14.30;99.20
5128;DHT22;2582;48.770;9.190;2023-04-15T09:07:47;14.60;98.80
5128;DHT22;2582;48.770;9.190;2023-04-15T09:10:14;15.10;97.90
5128;DHT22;2582;48.770;9.190;2023-04-15T09:12:40;15.10;97.00
5128;DHT22;2582;48.770;9.190;2023-04-15T09:15:07;15.40;97.10
5128;DHT22;2582;48.770;9.190;2023-04-15T09:17:41;15.10;96.10
5128;DHT22;2582;48.770;9.190;2023-04-15T09:22:38;14.90;97.10
5128;DHT22;2582;48.770;9.190;2023-04-15T09:25:25;14.40;96.90
5128;DHT22;2582;48.770;9.190;2023-04-15T09:27:56;14.40;97.80
5128;DHT22;2582;48.770;9.190;2023-04-15T09:30:23;14.60;97.10
5128;DHT22;2582;48.770;9.190;2023-04-15T09:32:57;14.60;97.10
5128;DHT22;2582;48.770;9.190;2023-04-15T09:35:24;14.40;96.10
5128;DHT22;2582;48.770;9.190;2023-04-15T09:37:51;14.50;96.50
5128;DHT22;2582;48.770;9.190;2023-04-15T09:40:37;14.80;96.50
5128;DHT22;2582;48.770;9.190;2023-04-15T09:43:04;14.60;95.60
5128;DHT22;2582;48.770;9.190;2023-04-15T09:45:31;14.50;95.30
5128;DHT22;2582;48.770;9.190;2023-04-15T09:47:58;14.50;95.40
5128;DHT22;2582;48.770;9.190;2023-04-15T09:50:27;14.50;95.40
5128;DHT22;2582;48.770;9.190;2023-04-15T09:52:56;14.70;95.90
5128;DHT22;2582;48.770;9.190;2023-04-15T09:55:22;15.10;96.00
5128;DHT22;2582;48.770;9.190;2023-04-15T09:57:47;14.90;95.30
5128;DHT22;2582;48.770;9.190;2023-04-15T10:00:13;14.80;95.70
5128;DHT22;2582;48.770;9.190;2023-04-15T10:02:40;14.70;95.60
5128;DHT22;2582;48.770;9.190;2023-04-15T10:05:09;14.80;96.10
5128;DHT22;2582;48.770;9.190;2023-04-15T10:07:35;15.00;95.00
5128;DHT22;2582;48.770;9.190;2023-04-15T10:10:02;15.30;94.80
5128;DHT22;2582;48.770;9.190;2023-04-15T10:12:30;15.10;94.10
5128;DHT22;2582;48.770;9.190;2023-04-15T10:14:59;15.00;93.30
5128;DHT22;2582;48.770;9.190;2023-04-15T10:17:27;15.00;93.60
5128;DHT22;2582;48.770;9.190;2023-04-15T10:20:00;15.20;94.20
5128;DHT22;2582;48.770;9.190;2023-04-15T10:22:27;15.20;92.40
5128;DHT22;2582;48.770;9.190;2023-04-15T10:24:54;14.60;93.30
5128;DHT22;2582;48.770;9.190;2023-04-15T10:27:20;14.50;94.10
5128;DHT22;2582;48.770;9.190;2023-04-15T10:29:48;14.80;93.50
5128;DHT22;2582;48.770;9.190;2023-04-15T10:32:16;15.10;93.50
5128;DHT22;2582;48.770;9.190;2023-04-15T10:34:45;15.40;93.00
5128;DHT22;2582;48.770;9.190;2023-04-15T10:37:10;15.40;92.30
5128;DHT22;2582;48.770;9.190;2023-04-15T10:42:13;15.50;92.60
5128;DHT22;2582;48.770;9.190;2023-04-15T10:44:42;15.60;92.00
5128;DHT22;2582;48.770;9.190;2023-04-15T10:47:12;15.80;92.90
5128;DHT22;2582;48.770;9.190;2023-04-15T10:49:46;16.00;91.40
5128;DHT22;2582;48.770;9.190;2023-04-15T10:52:13;15.40;92.30
5128;DHT22;2582;48.770;9.190;2023-04-15T10:54:40;15.40;92.20
5128;DHT22;2582;48.770;9.190;2023-04-15T10:57:06;15.40;92.70
5128;DHT22;2582;48.770;9.190;2023-04-15T10:59:36;15.70;92.30
5128;DHT22;2582;48.770;9.190;2023-04-15T11:02:02;16.00;90.80
5128;DHT22;2582;48.770;9.190;2023-04-15T11:07:39;15.50;91.20
5128;DHT22;2582;48.770;9.190;2023-04-15T11:13:01;15.10;91.40
5128;DHT22;2582;48.770;9.190;2023-04-15T11:15:29;14.70;91.90
5128;DHT22;2582;48.770;9.190;2023-04-15T11:17:56;14.60;92.80
5128;DHT22;2582;48.770;9.190;2023-04-15T11:20:22;14.90;93.10
5128;DHT22;2582;48.770;9.190;2023-04-15T11:22:54;15.00;92.60
5128;DHT22;2582;48.770;9.190;2023-04-15T11:25:24;15.20;92.80
5128;DHT22;2582;48.770;9.190;2023-04-15T11:27:51;16.20;92.10
5128;DHT22;2582;48.770;9.190;2023-04-15T11:30:23;16.50;91.80
5128;DHT22;2582;48.770;9.190;2023-04-15T11:32:50;16.60;91.40
5128;DHT22;2582;48.770;9.190;2023-04-15T11:35:17;16.90;89.20
5128;DHT22;2582;48.770;9.190;2023-04-15T11:37:47;17.20;85.70
5128;DHT22;2582;48.770;9.190;2023-04-15T11:40:14;17.70;84.20
5128;DHT22;2582;48.770;9.190;2023-04-15T11:42:42;18.20;83.10
5128;DHT22;2582;48.770;9.190;2023-04-15T11:45:09;17.80;82.50
5128;DHT22;2582;48.770;9.190;2023-04-15T11:47:38;17.10;84.70
5128;DHT22;2582;48.770;9.190;2023-04-15T11:50:17;16.50;87.60
5128;DHT22;2582;48.770;9.190;2023-04-15T11:53:00;15.40;90.20
5128;DHT22;2582;48.770;9.190;2023-04-15T11:55:27;15.10;91.40
5128;DHT22;2582;48.770;9.190;2023-04-15T12:00:38;14.70;92.60
5128;DHT22;2582;48.770;9.190;2023-04-15T12:03:11;15.00;93.70
5128;DHT22;2582;48.770;9.190;2023-04-15T12:06:07;15.10;92.10
5128;DHT22;2582;48.770;9.190;2023-04-15T12:11:18;15.30;91.60
5128;DHT22;2582;48.770;9.190;2023-04-15T12:13:47;15.60;91.50
5128;DHT22;2582;48.770;9.190;2023-04-15T12:16:20;15.90;91.40
5128;DHT22;2582;48.770;9.190;2023-04-15T12:18:53;16.10;91.10
5128;DHT22;2582;48.770;9.190;2023-04-15T12:21:22;15.90;91.80
5128;DHT22;2582;48.770;9.190;2023-04-15T12:26:33;16.10;90.10
5128;DHT22;2582;48.770;9.190;2023-04-15T12:29:03;15.80;89.80
5128;DHT22;2582;48.770;9.190;2023-04-15T12:31:29;15.50;89.50
5128;DHT22;2582;48.770;9.190;2023-04-15T12:33:55;15.30;91.50
5128;DHT22;2582;48.770;9.190;2023-04-15T12:36:21;14.60;93.80
5128;DHT22;2582;48.770;9.190;2023-04-15T12:38:48;13.80;96.70
5128;DHT22;2582;48.770;9.190;2023-04-15T12:41:14;12.90;99.90
5128;DHT22;2582;48.770;9.190;2023-04-15T12:43:39;13.00;99.90
5128;DHT22;2582;48.770;9.190;2023-04-15T12:46:05;12.80;99.90
5128;DHT22;2582;48.770;9.190;2023-04-15T12:48:33;12.60;99.90
5128;DHT22;2582;48.770;9.190;2023-04-15T12:50:59;12.50;99.90
5128;DHT22;2582;48.770;9.190;2023-04-15T12:53:24;12.30;99.90
5128;DHT22;2582;48.770;9.190;2023-04-15T12:55:50;12.20;99.90
5128;DHT22;2582;48.770;9.190;2023-04-15T12:58:16;12.10;99.90
5128;DHT22;2582;48.770;9.190;2023-04-15T13:00:42;12.20;99.90
5128;DHT22;2582;48.770;9.190;2023-04-15T13:03:07;12.30;99.90
5128;DHT22;2582;48.770;9.190;2023-04-15T13:05:33;12.30;99.90
5128;DHT22;2582;48.770;9.190;2023-04-15T13:08:01;12.40;99.90
5128;DHT22;2582;48.770;9.190;2023-04-15T13:10:27;12.80;99.90
5128;DHT22;2582;48.770;9.190;2023-04-15T13:12:53;13.30;99.90
5128;DHT22;2582;48.770;9.190;2023-04-15T13:15:21;13.40;99.90
5128;DHT22;2582;48.770;9.190;2023-04-15T13:17:47;13.90;99.90
5128;DHT22;2582;48.770;9.190;2023-04-15T13:20:12;14.00;99.90
5128;DHT22;2582;48.770;9.190;2023-04-15T13:22:38;13.70;99.90
5128;DHT22;2582;48.770;9.190;2023-04-15T13:25:04;14.00;99.90
5128;DHT22;2582;48.770;9.190;2023-04-15T13:27:30;13.90;99.00
5128;DHT22;2582;48.770;9.190;2023-04-15T13:29:56;13.40;99.40
5128;DHT22;2582;48.770;9.190;2023-04-15T13:32:22;13.60;99.80
5128;DHT22;2582;48.770;9.190;2023-04-15T13:34:47;13.60;99.90
5128;DHT22;2582;48.770;9.190;2023-04-15T13:37:13;13.80;99.70
5128;DHT22;2582;48.770;9.190;2023-04-15T13:39:38;14.20;98.90
5128;DHT22;2582;48.770;9.190;2023-04-15T13:42:04;14.50;97.90
5128;DHT22;2582;48.770;9.190;2023-04-15T13:44:30;14.60;97.60
5128;DHT22;2582;48.770;9.190;2023-04-15T13:46:55;14.80;97.20
5128;DHT22;2582;48.770;9.190;2023-04-15T13:49:21;14.70;96.40
5128;DHT22;2582;48.770;9.190;2023-04-15T13:51:46;14.60;95.40
5128;DHT22;2582;48.770;9.190;2023-04-15T13:54:12;15.00;94.90
5128;DHT22;2582;48.770;9.190;2023-04-15T13:56:38;15.00;92.90
5128;DHT22;2582;48.770;9.190;2023-04-15T13:59:03;14.60;91.90
5128;DHT22;2582;48.770;9.190;2023-04-15T14:01:31;14.30;91.00
5128;DHT22;2582;48.770;9.190;2023-04-15T14:03:56;14.30;91.00
5128;DHT22;2582;48.770;9.190;2023-04-15T14:06:22;14.50;90.60
5128;DHT22;2582;48.770;9.190;2023-04-15T14:08:48;14.40;90.40
5128;DHT22;2582;48.770;9.190;2023-04-15T14:11:14;14.40;90.30
5128;DHT22;2582;48.770;9.190;2023-04-15T14:13:39;14.20;90.70
5128;DHT22;2582;48.770;9.190;2023-04-15T14:16:05;14.00;90.50
5128;DHT22;2582;48.770;9.190;2023-04-15T14:18:32;13.80;90.10
5128;DHT22;2582;48.770;9.190;2023-04-15T14:20:57;13.80;90.00
5128;DHT22;2582;48.770;9.190;2023-04-15T14:23:23;13.80;88.60
5128;DHT22;2582;48.770;9.190;2023-04-15T14:25:49;13.70;84.70
5128;DHT22;2582;48.770;9.190;2023-04-15T14:28:15;13.50;84.60
5128;DHT22;2582;48.770;9.190;2023-04-15T14:30:41;13.60;85.20
5128;DHT22;2582;48.770;9.190;2023-04-15T14:33:07;13.50;85.80
5128;DHT22;2582;48.770;9.190;2023-04-15T14:35:32;13.40;86.90
5128;DHT22;2582;48.770;9.190;2023-04-15T14:37:58;13.50;87.20
5128;DHT22;2582;48.770;9.190;2023-04-15T14:40:24;13.50;87.40
5128;DHT22;2582;48.770;9.190;2023-04-15T14:42:49;13.60;87.80
5128;DHT22;2582;48.770;9.190;2023-04-15T14:45:15;13.70;88.00
5128;DHT22;2582;48.770;9.190;2023-04-15T14:47:40;13.50;88.20
5128;DHT22;2582;48.770;9.190;2023-04-15T14:50:06;13.20;88.40
5128;DHT22;2582;48.770;9.190;2023-04-15T14:52:32;13.00;89.80
5128;DHT22;2582;48.770;9.190;2023-04-15T14:55:07;13.00;90.50
5128;DHT22;2582;48.770;9.190;2023-04-15T14:57:35;13.00;90.40
5128;DHT22;2582;48.770;9.190;2023-04-15T15:00:02;12.90;91.20
5128;DHT22;2582;48.770;9.190;2023-04-15T15:02:28;12.90;91.30
5128;DHT22;2582;48.770;9.190;2023-04-15T15:04:54;12.80;91.70
5128;DHT22;2582;48.770;9.190;2023-04-15T15:07:21;12.60;92.00
5128;DHT22;2582;48.770;9.190;2023-04-15T15:09:47;12.60;92.40
5128;DHT22;2582;48.770;9.190;2023-04-15T15:12:12;12.60;92.70
5128;DHT22;2582;48.770;9.190;2023-04-15T15:14:38;12.60;93.20
5128;DHT22;2582;48.770;9.190;2023-04-15T15:17:03;12.60;93.80
5128;DHT22;2582;48.770;9.190;2023-04-15T15:19:29;12.40;94.50
5128;DHT22;2582;48.770;9.190;2023-04-15T15:21:55;12.40;94.90
5128;DHT22;2582;48.770;9.190;2023-04-15T15:24:20;12.40;95.30
5128;DHT22;2582;48.770;9.190;2023-04-15T15:26:46;12.40;95.60
5128;DHT22;2582;48.770;9.190;2023-04-15T15:29:11;12.40;95.30
5128;DHT22;2582;48.770;9.190;2023-04-15T15:31:37;12.20;95.30
5128;DHT22;2582;48.770;9.190;2023-04-15T15:34:03;12.10;95.60
5128;DHT22;2582;48.770;9.190;2023-04-15T15:36:29;12.10;96.30
5128;DHT22;2582;48.770;9.190;2023-04-15T15:38:58;12.20;96.20
5128;DHT22;2582;48.770;9.190;2023-04-15T15:41:24;12.30;96.80
5128;DHT22;2582;48.770;9.190;2023-04-15T15:43:50;12.30;97.20
5128;DHT22;2582;48.770;9.190;2023-04-15T15:46:16;12.50;97.80
5128;DHT22;2582;48.770;9.190;2023-04-15T15:48:42;12.60;97.40
5128;DHT22;2582;48.770;9.190;2023-04-15T15:51:08;12.60;97.30
5128;DHT22;2582;48.770;9.190;2023-04-15T15:53:34;12.50;96.70
5128;DHT22;2582;48.770;9.190;2023-04-15T15:56:00;12.50;97.70
5128;DHT22;2582;48.770;9.190;2023-04-15T15:58:27;12.40;97.00
5128;DHT22;2582;48.770;9.190;2023-04-15T16:00:52;12.40;97.10
5128;DHT22;2582;48.770;9.190;2023-04-15T16:03:18;12.30;97.60
5128;DHT22;2582;48.770;9.190;2023-04-15T16:05:43;12.40;97.70
5128;DHT22;2582;48.770;9.190;2023-04-15T16:08:10;12.40;98.20
5128;DHT22;2582;48.770;9.190;2023-04-15T16:10:37;12.40;98.20
5128;DHT22;2582;48.770;9.190;2023-04-15T16:13:02;12.20;98.20
5128;DHT22;2582;48.770;9.190;2023-04-15T16:15:28;12.20;99.00
5128;DHT22;2582;48.770;9.190;2023-04-15T16:17:53;12.00;99.90
5128;DHT22;2582;48.770;9.190;2023-04-15T16:20:19;11.90;99.90
5128;DHT22;2582;48.770;9.190;2023-04-15T16:22:45;11.80;99.90
5128;DHT22;2582;48.770;9.190;2023-04-15T16:25:10;11.70;99.90